createdAt,value
2023-04-27T00:01:15.258Z,94159.59
2023-04-27T00:03:42.648Z,94158.38
2023-04-27T00:06:10.018Z,94162.06
2023-04-27T00:08:36.995Z,94159.28
2023-04-27T00:11:04.146Z,94159.69
2023-04-27T00:13:30.985Z,94163.03
2023-04-27T00:15:57.759Z,94155.56
2023-04-27T00:18:24.445Z,94152.63
2023-04-27T00:20:51.248Z,94149.25
2023-04-27T00:23:18.012Z,94142.44
2023-04-27T00:25:44.711Z,94150.25
2023-04-27T00:28:11.571Z,94150.00
2023-04-27T00:30:38.312Z,94144.28
2023-04-27T00:33:05.134Z,94137.00
2023-04-27T00:35:34.699Z,94136.03
2023-04-27T00:38:01.485Z,94140.63
2023-04-27T00:40:28.280Z,94128.22
2023-04-27T00:42:55.034Z,94143.69
2023-04-27T00:45:22.051Z,94134.19
2023-04-27T00:47:49.170Z,94140.31
2023-04-27T00:50:17.090Z,94134.34
2023-04-27T00:52:44.290Z,94130.63
2023-04-27T00:55:11.874Z,94135.94
2023-04-27T00:57:39.110Z,94133.69
2023-04-27T01:00:07.429Z,94133.94
2023-04-27T01:02:35.304Z,94130.50
2023-04-27T01:05:03.151Z,94126.88
2023-04-27T01:07:29.911Z,94137.19
2023-04-27T01:09:56.787Z,94139.81
2023-04-27T01:12:23.580Z,94141.50
2023-04-27T01:14:50.416Z,94140.25
2023-04-27T01:17:18.405Z,94139.13
2023-04-27T01:19:45.231Z,94141.13
2023-04-27T01:22:12.295Z,94139.63
2023-04-27T01:24:39.046Z,94149.69
2023-04-27T01:27:05.943Z,94150.66
2023-04-27T01:29:32.930Z,94148.28
2023-04-27T01:31:59.773Z,94148.72
2023-04-27T01:34:26.842Z,94143.94
2023-04-27T01:36:53.573Z,94145.09
2023-04-27T01:39:20.244Z,94153.00
2023-04-27T01:41:47.024Z,94157.09
2023-04-27T01:44:13.748Z,94147.72
2023-04-27T01:46:41.347Z,94152.88
2023-04-27T01:49:08.170Z,94152.00
2023-04-27T01:51:34.888Z,94150.84
2023-04-27T01:54:01.572Z,94151.28
2023-04-27T01:56:28.384Z,94149.84
2023-04-27T01:58:55.465Z,94140.53
2023-04-27T02:01:22.596Z,94142.81
2023-04-27T02:03:49.583Z,94145.03
2023-04-27T02:06:16.420Z,94150.53
2023-04-27T02:08:43.218Z,94148.88
2023-04-27T02:11:09.899Z,94151.22
2023-04-27T02:13:36.676Z,94156.78
2023-04-27T02:16:05.270Z,94158.38
2023-04-27T02:18:33.797Z,94151.28
2023-04-27T02:21:00.797Z,94163.91
2023-04-27T02:23:27.694Z,94161.06
2023-04-27T02:25:54.380Z,94160.38
2023-04-27T02:28:21.189Z,94158.94
2023-04-27T02:30:48.346Z,94161.06
2023-04-27T02:33:15.073Z,94140.09
2023-04-27T02:35:41.801Z,94157.88
2023-04-27T02:38:08.533Z,94164.63
2023-04-27T02:40:35.297Z,94165.25
2023-04-27T02:43:02.022Z,94160.09
2023-04-27T02:45:29.796Z,94161.16
2023-04-27T02:47:56.612Z,94168.25
2023-04-27T02:50:23.467Z,94161.59
2023-04-27T02:52:50.344Z,94164.09
2023-04-27T02:55:17.586Z,94153.22
2023-04-27T02:57:44.526Z,94167.81
2023-04-27T03:00:12.223Z,94164.50
2023-04-27T03:02:39.183Z,94164.69
2023-04-27T03:05:07.013Z,94157.56
2023-04-27T03:07:33.697Z,94160.31
2023-04-27T03:10:00.564Z,94161.78
2023-04-27T03:12:27.332Z,94161.06
2023-04-27T03:14:54.204Z,94166.53
2023-04-27T03:17:21.064Z,94163.50
2023-04-27T03:19:49.296Z,94160.59
2023-04-27T03:22:16.069Z,94153.41
2023-04-27T03:24:43.166Z,94159.84
2023-04-27T03:27:10.067Z,94167.06
2023-04-27T03:29:36.774Z,94162.00
2023-04-27T03:32:04.733Z,94169.53
2023-04-27T03:34:31.872Z,94162.53
2023-04-27T03:36:58.648Z,94160.88
2023-04-27T03:39:25.473Z,94165.53
2023-04-27T03:41:52.176Z,94170.44
2023-04-27T03:44:18.877Z,94169.06
2023-04-27T03:46:45.586Z,94165.78
2023-04-27T03:49:12.492Z,94161.34
2023-04-27T03:51:42.424Z,94157.13
2023-04-27T03:54:10.163Z,94170.03
2023-04-27T03:56:37.201Z,94174.28
2023-04-27T03:59:05.013Z,94172.25
2023-04-27T04:01:32.091Z,94166.56
2023-04-27T04:03:59.148Z,94171.81
2023-04-27T04:06:26.286Z,94172.97
2023-04-27T04:08:52.946Z,94183.88
2023-04-27T04:11:19.688Z,94178.34
2023-04-27T04:13:47.453Z,94175.25
2023-04-27T04:16:14.233Z,94177.50
2023-04-27T04:18:41.151Z,94182.19
2023-04-27T04:21:09.750Z,94173.84
2023-04-27T04:23:37.633Z,94184.84
2023-04-27T04:26:04.941Z,94187.06
2023-04-27T04:28:31.569Z,94186.84
2023-04-27T04:30:59.216Z,94191.75
2023-04-27T04:33:26.446Z,94188.13
2023-04-27T04:35:53.745Z,94187.50
2023-04-27T04:38:21.798Z,94185.19
2023-04-27T04:40:48.663Z,94184.47
2023-04-27T04:43:15.429Z,94187.72
2023-04-27T04:45:42.807Z,94183.81
2023-04-27T04:48:10.395Z,94187.06
2023-04-27T04:50:37.134Z,94182.34
2023-04-27T04:53:03.895Z,94194.56
2023-04-27T04:55:30.740Z,94187.81
2023-04-27T04:57:57.405Z,94183.63
2023-04-27T05:00:24.280Z,94190.63
2023-04-27T05:02:51.996Z,94185.97
2023-04-27T05:05:18.862Z,94197.50
2023-04-27T05:07:45.678Z,94199.72
2023-04-27T05:10:12.543Z,94199.41
2023-04-27T05:12:39.309Z,94197.72
2023-04-27T05:15:06.565Z,94192.03
2023-04-27T05:17:33.561Z,94198.00
2023-04-27T05:20:01.078Z,94180.06
2023-04-27T05:22:27.824Z,94197.06
2023-04-27T05:24:54.572Z,94212.72
2023-04-27T05:27:21.284Z,94216.13
2023-04-27T05:29:48.010Z,94208.19
2023-04-27T05:32:14.671Z,94210.81
2023-04-27T05:34:43.850Z,94220.78
2023-04-27T05:37:10.829Z,94225.19
2023-04-27T05:39:37.717Z,94228.78
2023-04-27T05:42:04.740Z,94229.38
2023-04-27T05:44:31.742Z,94225.09
2023-04-27T05:46:58.456Z,94223.78
2023-04-27T05:49:25.225Z,94230.59
2023-04-27T05:51:52.023Z,94226.16
2023-04-27T05:54:18.752Z,94237.06
2023-04-27T05:56:45.596Z,94242.47
2023-04-27T05:59:12.711Z,94239.94
2023-04-27T06:01:39.628Z,94247.06
2023-04-27T06:04:07.121Z,94247.31
2023-04-27T06:06:35.558Z,94249.09
2023-04-27T06:09:02.411Z,94247.44
2023-04-27T06:11:29.155Z,94239.50
2023-04-27T06:13:55.887Z,94249.00
2023-04-27T06:16:23.258Z,94244.75
2023-04-27T06:18:52.385Z,94252.84
2023-04-27T06:21:19.225Z,94245.28
2023-04-27T06:23:45.972Z,94256.09
2023-04-27T06:26:12.745Z,94255.72
2023-04-27T06:28:39.522Z,94256.66
2023-04-27T06:31:07.005Z,94261.59
2023-04-27T06:33:33.961Z,94260.28
2023-04-27T06:36:01.465Z,94269.00
2023-04-27T06:38:28.497Z,94256.25
2023-04-27T06:40:55.396Z,94270.06
2023-04-27T06:43:22.932Z,94262.50
2023-04-27T06:45:49.716Z,94274.00
2023-04-27T06:48:17.218Z,94267.06
2023-04-27T06:50:44.381Z,94273.81
2023-04-27T06:53:11.329Z,94276.03
2023-04-27T06:55:38.255Z,94262.09
2023-04-27T06:58:05.436Z,94262.88
2023-04-27T07:00:32.513Z,94275.81
2023-04-27T07:02:59.317Z,94269.66
2023-04-27T07:05:26.290Z,94264.88
2023-04-27T07:07:53.332Z,94252.16
2023-04-27T07:10:20.247Z,94260.47
2023-04-27T07:12:46.983Z,94262.50
2023-04-27T07:15:13.755Z,94239.22
2023-04-27T07:17:40.674Z,94258.91
2023-04-27T07:20:08.792Z,94258.06
2023-04-27T07:22:35.646Z,94261.84
2023-04-27T07:25:02.452Z,94265.22
2023-04-27T07:27:29.154Z,94266.44
2023-04-27T07:29:55.944Z,94265.25
2023-04-27T07:32:22.850Z,94247.69
2023-04-27T07:34:53.893Z,94249.97
2023-04-27T07:37:21.401Z,94245.28
2023-04-27T07:39:50.303Z,94246.66
2023-04-27T07:42:17.168Z,94253.63
2023-04-27T07:44:44.002Z,94260.50
2023-04-27T07:47:10.837Z,94266.78
2023-04-27T07:49:38.425Z,94262.00
2023-04-27T07:52:05.581Z,94273.19
2023-04-27T07:54:32.362Z,94273.56
2023-04-27T07:56:59.125Z,94274.38
2023-04-27T07:59:29.821Z,94270.41
2023-04-27T08:02:07.153Z,94267.41
2023-04-27T08:04:43.476Z,94270.09
2023-04-27T08:07:10.889Z,94260.63
2023-04-27T08:09:38.046Z,94272.97
2023-04-27T08:12:05.058Z,94270.97
2023-04-27T08:14:34.697Z,94266.72
2023-04-27T08:17:01.582Z,94264.00
2023-04-27T08:19:28.378Z,94239.31
2023-04-27T08:21:55.130Z,94250.97
2023-04-27T08:24:21.898Z,94265.13
2023-04-27T08:26:48.646Z,94262.19
2023-04-27T08:29:26.217Z,94254.25
2023-04-27T08:31:56.916Z,94253.09
2023-04-27T08:34:24.121Z,94258.44
2023-04-27T08:36:51.117Z,94256.91
2023-04-27T08:39:18.471Z,94261.84
2023-04-27T08:41:46.444Z,94252.56
2023-04-27T08:44:13.363Z,94256.84
2023-04-27T08:46:40.191Z,94256.91
2023-04-27T08:49:10.134Z,94246.44
2023-04-27T08:51:36.921Z,94252.13
2023-04-27T08:54:03.813Z,94258.50
2023-04-27T08:56:31.150Z,94251.50
2023-04-27T08:58:59.191Z,94256.47
2023-04-27T09:01:27.732Z,94249.22
2023-04-27T09:03:59.127Z,94253.41
2023-04-27T09:06:36.423Z,94252.09
2023-04-27T09:09:04.360Z,94247.56
2023-04-27T09:11:36.193Z,94245.16
2023-04-27T09:14:04.667Z,94242.69
2023-04-27T09:16:32.085Z,94252.06
2023-04-27T09:18:59.120Z,94254.59
2023-04-27T09:21:29.580Z,94247.38
2023-04-27T09:23:56.547Z,94243.91
2023-04-27T09:26:25.349Z,94249.50
2023-04-27T09:28:53.825Z,94244.22
2023-04-27T09:31:21.028Z,94250.19
2023-04-27T09:33:55.484Z,94240.22
2023-04-27T09:36:22.972Z,94222.69
2023-04-27T09:38:51.300Z,94232.91
2023-04-27T09:41:18.173Z,94240.53
2023-04-27T09:43:46.358Z,94247.31
2023-04-27T09:46:16.420Z,94231.75
2023-04-27T09:48:43.243Z,94231.69
2023-04-27T09:51:10.083Z,94236.22
2023-04-27T09:53:40.897Z,94233.00
2023-04-27T09:56:14.086Z,94218.88
2023-04-27T09:59:19.613Z,94218.91
2023-04-27T10:01:52.222Z,94222.63
2023-04-27T10:04:43.350Z,94230.28
2023-04-27T10:07:16.849Z,94231.94
2023-04-27T10:09:49.318Z,94230.09
2023-04-27T10:12:19.029Z,94226.59
2023-04-27T10:15:15.998Z,94229.09
2023-04-27T10:17:58.863Z,94223.19
2023-04-27T10:20:30.385Z,94231.00
2023-04-27T10:22:57.768Z,94221.97
2023-04-27T10:25:28.529Z,94217.75
2023-04-27T10:28:02.857Z,94222.03
2023-04-27T10:30:37.889Z,94215.72
2023-04-27T10:33:12.026Z,94216.06
2023-04-27T10:35:41.418Z,94223.69
2023-04-27T10:38:23.682Z,94214.34
2023-04-27T10:41:02.199Z,94218.91
2023-04-27T10:43:30.871Z,94209.03
2023-04-27T10:46:11.969Z,94221.81
2023-04-27T10:48:43.544Z,94203.59
2023-04-27T10:51:11.705Z,94200.31
2023-04-27T10:53:38.419Z,94204.16
2023-04-27T10:56:07.165Z,94202.66
2023-04-27T11:01:09.075Z,94195.47
2023-04-27T11:03:36.714Z,94206.34
2023-04-27T11:06:05.517Z,94195.38
2023-04-27T11:08:34.158Z,94191.66
2023-04-27T11:11:01.924Z,94191.88
2023-04-27T11:13:28.777Z,94190.94
2023-04-27T11:15:58.006Z,94176.31
2023-04-27T11:18:26.705Z,94184.50
2023-04-27T11:20:55.296Z,94180.38
2023-04-27T11:23:26.925Z,94171.66
2023-04-27T11:25:54.469Z,94175.41
2023-04-27T11:28:24.660Z,94183.44
2023-04-27T11:30:59.198Z,94178.75
2023-04-27T11:33:27.296Z,94166.72
2023-04-27T11:35:54.583Z,94163.81
2023-04-27T11:38:22.133Z,94171.00
2023-04-27T11:41:05.097Z,94174.00
2023-04-27T11:43:32.505Z,94169.47
2023-04-27T11:46:03.488Z,94173.69
2023-04-27T11:48:30.754Z,94173.38
2023-04-27T11:51:02.338Z,94172.25
2023-04-27T11:53:31.146Z,94165.31
2023-04-27T11:56:00.261Z,94159.69
2023-04-27T11:58:29.365Z,94160.97
2023-04-27T12:00:58.055Z,94161.72
2023-04-27T12:03:26.170Z,94156.38
2023-04-27T12:05:53.322Z,94156.13
2023-04-27T12:08:20.790Z,94160.66
2023-04-27T12:10:47.791Z,94151.34
2023-04-27T12:13:14.721Z,94148.47
2023-04-27T12:15:42.506Z,94149.31
2023-04-27T12:18:09.931Z,94151.78
2023-04-27T12:20:36.906Z,94137.50
2023-04-27T12:23:03.799Z,94145.28
2023-04-27T12:25:30.550Z,94142.50
2023-04-27T12:27:57.953Z,94143.53
2023-04-27T12:30:24.706Z,94135.41
2023-04-27T12:32:51.545Z,94141.41
2023-04-27T12:35:18.353Z,94128.59
2023-04-27T12:37:45.192Z,94146.06
2023-04-27T12:40:12.498Z,94144.72
2023-04-27T12:42:40.594Z,94146.84
2023-04-27T12:45:07.997Z,94152.22
2023-04-27T12:50:05.871Z,94146.81
2023-04-27T12:52:32.546Z,94146.31
2023-04-27T12:54:59.647Z,94145.66
2023-04-27T12:57:26.780Z,94138.28
2023-04-27T12:59:53.640Z,94149.84
2023-04-27T13:02:20.458Z,94142.75
2023-04-27T13:04:47.506Z,94126.25
2023-04-27T13:07:14.226Z,94131.03
2023-04-27T13:09:41.930Z,94132.69
2023-04-27T13:12:08.701Z,94141.53
2023-04-27T13:14:35.454Z,94146.78
2023-04-27T13:17:02.649Z,94149.16
2023-04-27T13:19:29.431Z,94145.38
2023-04-27T13:21:56.630Z,94141.81
2023-04-27T13:24:24.730Z,94151.59
2023-04-27T13:26:51.469Z,94151.47
2023-04-27T13:29:18.286Z,94150.66
2023-04-27T13:31:45.118Z,94149.34
2023-04-27T13:34:12.352Z,94142.91
2023-04-27T13:36:39.193Z,94138.00
2023-04-27T13:39:06.610Z,94146.41
2023-04-27T13:41:35.082Z,94143.34
2023-04-27T13:44:02.345Z,94147.84
2023-04-27T13:46:29.148Z,94153.13
2023-04-27T13:48:57.060Z,94145.06
2023-04-27T13:51:24.083Z,94157.75
2023-04-27T13:53:50.821Z,94156.72
2023-04-27T13:56:17.539Z,94151.41
2023-04-27T13:58:44.209Z,94151.38
2023-04-27T14:01:11.052Z,94146.09
2023-04-27T14:03:39.785Z,94150.41
2023-04-27T14:06:08.090Z,94148.78
2023-04-27T14:08:34.869Z,94143.25
2023-04-27T14:11:01.585Z,94159.63
2023-04-27T14:13:28.374Z,94148.34
2023-04-27T14:15:55.091Z,94152.84
2023-04-27T14:18:25.505Z,94147.84
2023-04-27T14:20:58.563Z,94138.06
2023-04-27T14:23:25.337Z,94153.03
2023-04-27T14:25:52.029Z,94150.72
2023-04-27T14:28:18.804Z,94138.50
2023-04-27T14:30:45.683Z,94144.22
2023-04-27T14:33:12.500Z,94150.25
2023-04-27T14:35:39.255Z,94151.88
2023-04-27T14:38:06.226Z,94150.88
2023-04-27T14:40:33.303Z,94159.06
2023-04-27T14:43:00.156Z,94151.13
2023-04-27T14:45:33.469Z,94158.22
2023-04-27T14:48:07.011Z,94153.38
2023-04-27T14:50:33.814Z,94146.03
2023-04-27T14:53:00.701Z,94152.03
2023-04-27T14:55:27.973Z,94150.81
2023-04-27T14:57:54.745Z,94156.59
2023-04-27T15:00:21.718Z,94155.53
2023-04-27T15:02:48.715Z,94159.31
2023-04-27T15:05:15.518Z,94161.53
2023-04-27T15:07:42.295Z,94167.47
2023-04-27T15:10:09.592Z,94162.66
2023-04-27T15:12:36.283Z,94156.00
2023-04-27T15:15:03.724Z,94149.81
2023-04-27T15:17:30.625Z,94161.47
2023-04-27T15:19:57.490Z,94162.97
2023-04-27T15:22:24.334Z,94168.59
2023-04-27T15:24:51.881Z,94167.59
2023-04-27T15:27:19.355Z,94165.94
2023-04-27T15:29:46.069Z,94174.28
2023-04-27T15:32:12.795Z,94172.91
2023-04-27T15:34:42.661Z,94174.47
2023-04-27T15:37:09.391Z,94168.50
2023-04-27T15:39:36.221Z,94164.25
2023-04-27T15:42:03.596Z,94171.97
2023-04-27T15:44:30.396Z,94167.13
2023-04-27T15:46:57.112Z,94172.09
2023-04-27T15:49:23.864Z,94169.47
2023-04-27T15:51:51.395Z,94173.97
2023-04-27T15:54:18.461Z,94170.84
2023-04-27T15:56:45.133Z,94169.22
2023-04-27T15:59:12.344Z,94172.78
2023-04-27T16:01:39.176Z,94166.16
2023-04-27T16:04:06.327Z,94168.59
2023-04-27T16:06:34.505Z,94174.09
2023-04-27T16:09:03.380Z,94172.13
2023-04-27T16:11:31.510Z,94163.97
2023-04-27T16:13:58.378Z,94163.63
2023-04-27T16:16:25.175Z,94165.91
2023-04-27T16:18:51.975Z,94164.75
2023-04-27T16:21:18.667Z,94167.72
2023-04-27T16:23:45.426Z,94159.38
2023-04-27T16:26:12.066Z,94164.19
2023-04-27T16:28:38.735Z,94152.94
2023-04-27T16:31:06.010Z,94160.06
2023-04-27T16:33:32.790Z,94161.22
2023-04-27T16:35:59.493Z,94159.16
2023-04-27T16:38:26.847Z,94162.44
2023-04-27T16:40:56.129Z,94170.66
2023-04-27T16:43:23.100Z,94163.06
2023-04-27T16:45:49.909Z,94180.72
2023-04-27T16:48:17.063Z,94181.91
2023-04-27T16:50:43.773Z,94180.84
2023-04-27T16:53:13.793Z,94178.78
2023-04-27T16:55:40.820Z,94181.97
2023-04-27T16:58:07.812Z,94182.41
2023-04-27T17:00:34.604Z,94186.63
2023-04-27T17:03:01.367Z,94192.00
2023-04-27T17:05:28.179Z,94188.38
2023-04-27T17:07:54.958Z,94192.88
2023-04-27T17:10:21.909Z,94187.13
2023-04-27T17:12:48.721Z,94197.34
2023-04-27T17:15:16.158Z,94198.53
2023-04-27T17:17:42.993Z,94202.50
2023-04-27T17:20:10.600Z,94205.69
2023-04-27T17:22:37.607Z,94209.88
2023-04-27T17:25:04.695Z,94197.84
2023-04-27T17:27:31.504Z,94205.34
2023-04-27T17:29:58.240Z,94203.31
2023-04-27T17:32:25.011Z,94204.72
2023-04-27T17:34:52.638Z,94203.22
2023-04-27T17:37:19.359Z,94216.81
2023-04-27T17:39:46.562Z,94211.19
2023-04-27T17:42:13.243Z,94207.91
2023-04-27T17:44:42.362Z,94205.03
2023-04-27T17:47:09.471Z,94208.88
2023-04-27T17:49:36.419Z,94209.66
2023-04-27T17:52:03.292Z,94207.88
2023-04-27T17:54:30.323Z,94206.31
2023-04-27T17:56:57.305Z,94207.75
2023-04-27T17:59:24.921Z,94206.50
2023-04-27T18:01:52.743Z,94211.56
2023-04-27T18:04:19.702Z,94217.34
2023-04-27T18:06:46.591Z,94228.19
2023-04-27T18:09:13.784Z,94225.13
2023-04-27T18:11:41.264Z,94219.81
2023-04-27T18:14:08.035Z,94222.19
2023-04-27T18:16:34.920Z,94230.94
2023-04-27T18:19:01.680Z,94237.84
2023-04-27T18:21:28.865Z,94232.38
2023-04-27T18:23:56.552Z,94242.31
2023-04-27T18:26:23.954Z,94236.63
2023-04-27T18:28:50.980Z,94238.06
2023-04-27T18:31:18.453Z,94240.72
2023-04-27T18:33:45.547Z,94245.34
2023-04-27T18:36:12.657Z,94248.97
2023-04-27T18:38:39.567Z,94252.31
2023-04-27T18:41:06.476Z,94249.84
2023-04-27T18:43:36.599Z,94262.03
2023-04-27T18:46:04.227Z,94264.63
2023-04-27T18:48:31.125Z,94265.94
2023-04-27T18:50:57.835Z,94261.69
2023-04-27T18:53:24.806Z,94261.34
2023-04-27T18:55:52.253Z,94275.38
2023-04-27T18:58:18.990Z,94277.41
2023-04-27T19:00:45.870Z,94277.19
2023-04-27T19:03:12.791Z,94271.13
2023-04-27T19:05:42.953Z,94272.22
2023-04-27T19:08:10.892Z,94276.94
2023-04-27T19:10:38.090Z,94289.38
2023-04-27T19:13:05.507Z,94288.94
2023-04-27T19:15:32.430Z,94299.38
2023-04-27T19:18:09.360Z,94296.38
2023-04-27T19:20:37.728Z,94294.19
2023-04-27T19:23:05.234Z,94293.78
2023-04-27T19:25:32.714Z,94302.34
2023-04-27T19:28:00.492Z,94293.41
2023-04-27T19:30:27.445Z,94303.72
2023-04-27T19:32:54.212Z,94306.53
2023-04-27T19:35:23.699Z,94298.41
2023-04-27T19:37:51.623Z,94295.16
2023-04-27T19:40:18.805Z,94294.41
2023-04-27T19:42:45.636Z,94297.38
2023-04-27T19:45:12.896Z,94300.38
2023-04-27T19:47:39.851Z,94299.00
2023-04-27T19:50:06.999Z,94302.16
2023-04-27T19:52:34.263Z,94302.09
2023-04-27T19:55:01.400Z,94307.28
2023-04-27T19:57:28.037Z,94309.28
2023-04-27T19:59:54.814Z,94306.66
2023-04-27T20:02:21.952Z,94311.06
2023-04-27T20:04:49.066Z,94313.75
2023-04-27T20:07:16.022Z,94307.09
2023-04-27T20:09:42.888Z,94315.47
2023-04-27T20:12:15.886Z,94316.63
2023-04-27T20:14:55.784Z,94320.63
2023-04-27T20:17:25.719Z,94320.03
2023-04-27T20:19:56.557Z,94315.28
2023-04-27T20:22:23.544Z,94314.88
2023-04-27T20:24:50.881Z,94316.53
2023-04-27T20:27:17.607Z,94311.19
2023-04-27T20:29:46.504Z,94322.16
2023-04-27T20:32:13.293Z,94322.91
2023-04-27T20:34:39.914Z,94323.72
2023-04-27T20:37:06.556Z,94326.13
2023-04-27T20:39:33.855Z,94331.09
2023-04-27T20:42:00.476Z,94326.50
2023-04-27T20:44:27.927Z,94326.91
2023-04-27T20:46:54.496Z,94334.13
2023-04-27T20:49:31.756Z,94323.72
2023-04-27T20:52:01.632Z,94330.16
2023-04-27T20:54:28.460Z,94331.81
2023-04-27T20:56:55.067Z,94338.28
2023-04-27T20:59:21.759Z,94337.09
2023-04-27T21:01:48.434Z,94323.75
2023-04-27T21:04:15.232Z,94334.59
2023-04-27T21:06:42.124Z,94325.59
2023-04-27T21:09:09.414Z,94326.34
2023-04-27T21:11:36.398Z,94332.13
2023-04-27T21:14:03.010Z,94331.13
2023-04-27T21:16:29.838Z,94329.53
2023-04-27T21:18:56.580Z,94331.53
2023-04-27T21:21:24.470Z,94332.38
2023-04-27T21:24:00.571Z,94330.00
2023-04-27T21:26:33.689Z,94321.22
2023-04-27T21:29:01.222Z,94326.59
2023-04-27T21:31:27.895Z,94322.41
2023-04-27T21:33:54.577Z,94306.91
2023-04-27T21:36:21.229Z,94323.84
2023-04-27T21:38:47.798Z,94310.72
2023-04-27T21:41:15.716Z,94301.16
2023-04-27T21:43:42.472Z,94309.94
2023-04-27T21:46:09.410Z,94314.50
2023-04-27T21:48:36.311Z,94321.75
2023-04-27T21:51:03.085Z,94317.56
2023-04-27T21:53:30.636Z,94316.38
2023-04-27T21:55:57.357Z,94311.38
2023-04-27T21:58:24.429Z,94311.59
2023-04-27T22:00:51.717Z,94314.56
2023-04-27T22:03:18.513Z,94312.63
2023-04-27T22:05:45.482Z,94305.06
2023-04-27T22:08:12.242Z,94306.44
2023-04-27T22:10:38.892Z,94309.44
2023-04-27T22:13:17.733Z,94312.41
2023-04-27T22:15:46.170Z,94325.78
2023-04-27T22:18:14.539Z,94313.81
2023-04-27T22:20:41.749Z,94308.25
2023-04-27T22:23:09.311Z,94308.47
2023-04-27T22:25:36.143Z,94308.84
2023-04-27T22:28:02.856Z,94310.84
2023-04-27T22:30:29.871Z,94315.22
2023-04-27T22:32:56.808Z,94314.63
2023-04-27T22:35:26.996Z,94310.25
2023-04-27T22:37:58.713Z,94310.06
2023-04-27T22:40:25.736Z,94305.25
2023-04-27T22:42:53.576Z,94299.47
2023-04-27T22:45:20.220Z,94302.25
2023-04-27T22:47:46.985Z,94300.28
2023-04-27T22:50:13.836Z,94297.31
2023-04-27T22:52:42.922Z,94290.75
2023-04-27T22:55:10.640Z,94295.50
2023-04-27T22:57:37.941Z,94292.72
2023-04-27T23:00:05.523Z,94299.88
2023-04-27T23:02:32.436Z,94301.47
2023-04-27T23:04:59.362Z,94295.91
2023-04-27T23:07:26.108Z,94301.09
2023-04-27T23:09:53.082Z,94299.06
2023-04-27T23:12:20.825Z,94303.28
2023-04-27T23:14:47.620Z,94293.53
2023-04-27T23:17:17.192Z,94290.94
2023-04-27T23:19:43.956Z,94294.72
2023-04-27T23:22:10.641Z,94304.84
2023-04-27T23:24:37.488Z,94294.31
2023-04-27T23:27:04.236Z,94287.34
2023-04-27T23:29:31.260Z,94303.66
2023-04-27T23:32:04.699Z,94297.50
2023-04-27T23:34:33.034Z,94300.09
2023-04-27T23:36:59.814Z,94301.69
2023-04-27T23:39:27.904Z,94292.72
2023-04-27T23:41:54.741Z,94291.72
2023-04-27T23:44:21.575Z,94299.47
2023-04-27T23:46:48.384Z,94288.72
2023-04-27T23:49:15.232Z,94279.00
2023-04-27T23:51:41.885Z,94282.78
2023-04-27T23:54:08.619Z,94282.19
2023-04-27T23:56:35.572Z,94288.56
2023-04-27T23:59:02.338Z,94278.22
